Time;durP1;ratioP1;P1;durP2;ratioP2;P2;SDS_P1;SDS_P2;PMS_P1;PMS_P2;Temp;Humidity;BMP_temperature;BMP_pressure;BME280_temperature;BME280_humidity;BME280_pressure;Samples;Min_cycle;Max_cycle;Signal;HPM_P1;HPM_P2
2022/02/16 00:01:29;;;;;;;12.52;8.98;;;;;;;3.45;76.50;99767.06;4988737;28;106117;-78
2022/02/16 00:03:54;;;;;;;10.00;7.95;;;;;;;3.57;76.14;99747.56;4990588;28;106335;-78
2022/02/16 00:06:20;;;;;;;15.90;9.82;;;;;;;3.65;76.21;99758.25;4990920;28;105917;-82
2022/02/16 00:08:45;;;;;;;14.20;8.90;;;;;;;3.73;76.43;99761.03;4991107;28;106333;-79
2022/02/16 00:11:11;;;;;;;15.30;10.50;;;;;;;3.85;75.97;99753.00;4991278;28;106121;-78
2022/02/16 00:13:36;;;;;;;15.52;8.80;;;;;;;3.91;75.79;99760.34;4990108;28;106300;-77
2022/02/16 00:16:08;;;;;;;15.90;9.82;;;;;;;3.96;75.72;99752.84;4991036;28;106000;-80
2022/02/16 00:18:36;;;;;;;16.75;8.88;;;;;;;4.05;75.71;99745.94;4990947;28;105945;-79
2022/02/16 00:21:02;;;;;;;19.15;11.05;;;;;;;4.13;75.63;99745.22;4989035;28;106015;-82
2022/02/16 00:23:28;;;;;;;19.83;11.90;;;;;;;4.19;75.25;99747.31;4989696;28;106268;-79
2022/02/16 00:25:55;;;;;;;16.73;10.55;;;;;;;4.21;75.50;99745.34;4990240;28;106831;-82
2022/02/16 00:28:21;;;;;;;15.32;9.15;;;;;;;4.19;74.81;99748.13;4990568;28;106061;-77
2022/02/16 00:30:46;;;;;;;19.10;12.60;;;;;;;4.15;74.82;99751.19;4990348;28;105850;-78
2022/02/16 00:33:12;;;;;;;18.60;12.32;;;;;;;4.09;74.70;99746.47;4989295;28;105949;-78
2022/02/16 00:35:38;;;;;;;16.27;11.63;;;;;;;3.99;74.49;99757.88;4987573;28;106305;-78
2022/02/16 00:38:04;;;;;;;21.42;12.77;;;;;;;3.91;74.09;99755.09;4989512;28;106024;-78
2022/02/16 00:40:29;;;;;;;20.88;13.73;;;;;;;3.83;74.32;99765.47;4988813;28;105921;-76
2022/02/16 00:42:54;;;;;;;24.30;14.15;;;;;;;3.75;74.01;99765.34;4989083;28;106062;-79
2022/02/16 00:45:20;;;;;;;26.40;16.35;;;;;;;3.67;74.49;99758.94;4986759;28;109929;-80
2022/02/16 00:47:46;;;;;;;22.63;14.55;;;;;;;3.60;74.02;99763.09;4989682;28;106197;-82
2022/02/16 00:50:12;;;;;;;19.90;11.73;;;;;;;3.54;74.34;99758.34;4988427;28;106276;-79
2022/02/16 00:52:37;;;;;;;22.48;14.05;;;;;;;3.57;74.72;99758.09;4988781;28;106091;-80
2022/02/16 00:55:03;;;;;;;24.75;14.48;;;;;;;3.53;74.64;99756.69;4989573;28;105769;-78
2022/02/16 00:57:29;;;;;;;25.38;14.52;;;;;;;3.49;74.83;99755.31;4989450;28;105964;-77
2022/02/16 00:59:55;;;;;;;24.15;14.40;;;;;;;3.49;75.19;99755.31;4989477;28;106158;-78
2022/02/16 01:02:20;;;;;;;21.70;14.38;;;;;;;3.53;74.94;99761.97;4989048;28;106147;-80
2022/02/16 01:04:46;;;;;;;24.13;13.98;;;;;;;3.56;75.37;99761.69;4989116;28;106051;-79
2022/02/16 01:07:11;;;;;;;19.00;12.75;;;;;;;3.61;75.66;99763.91;4989090;28;106044;-78
2022/02/16 01:09:36;;;;;;;24.90;14.55;;;;;;;3.69;75.76;99757.00;4987147;28;106032;-78
2022/02/16 01:12:02;;;;;;;17.25;10.60;;;;;;;3.81;75.76;99751.59;4986875;28;107527;-83
2022/02/16 01:14:28;;;;;;;19.70;12.07;;;;;;;3.82;75.72;99743.56;4987206;28;107674;-77
2022/02/16 01:16:53;;;;;;;16.40;10.73;;;;;;;3.80;75.22;99742.88;4989305;28;105905;-77
2022/02/16 01:19:19;;;;;;;18.45;12.25;;;;;;;3.77;75.50;99743.13;4989132;28;105940;-79
2022/02/16 01:21:44;;;;;;;17.75;11.80;;;;;;;3.77;75.12;99743.13;4988599;28;106009;-81
2022/02/16 01:24:10;;;;;;;18.90;11.93;;;;;;;3.72;74.97;99733.00;4988686;28;106010;-78
2022/02/16 01:26:35;;;;;;;19.20;12.65;;;;;;;3.67;74.72;99726.50;4988573;28;106005;-78
2022/02/16 01:29:00;;;;;;;17.23;10.85;;;;;;;3.64;75.10;99730.22;4988898;28;106223;-76
2022/02/16 01:31:26;;;;;;;17.73;11.90;;;;;;;3.66;75.34;99725.66;4988816;28;107092;-76
2022/02/16 01:33:51;;;;;;;20.13;13.15;;;;;;;3.68;75.55;99715.00;4986940;28;106156;-76
2022/02/16 01:36:16;;;;;;;20.02;11.82;;;;;;;3.66;75.43;99715.13;4989636;28;105890;-77
2022/02/16 01:38:42;;;;;;;18.65;11.95;;;;;;;3.66;75.19;99717.75;4988208;28;105778;-81
2022/02/16 01:41:13;;;;;;;15.70;9.50;;;;;;;3.67;75.61;99711.50;4989204;28;106242;-77
2022/02/16 01:43:44;;;;;;;11.98;7.55;;;;;;;3.67;75.39;99703.59;4988853;28;106036;-85
2022/02/16 01:46:10;;;;;;;17.08;12.13;;;;;;;3.68;75.46;99707.09;4989740;28;105806;-76
2022/02/16 01:48:35;;;;;;;15.20;10.38;;;;;;;3.68;75.63;99697.38;4988299;28;106123;-83
2022/02/16 01:51:00;;;;;;;17.90;10.60;;;;;;;3.67;75.38;99677.25;4988313;28;105842;-77
2022/02/16 01:53:26;;;;;;;18.70;11.02;;;;;;;3.59;74.68;99682.38;4987851;28;106088;-78
2022/02/16 01:55:51;;;;;;;16.45;10.05;;;;;;;3.59;75.30;99682.38;4988419;28;105893;-78
2022/02/16 01:58:17;;;;;;;17.05;11.65;;;;;;;3.58;75.18;99683.34;4988226;28;106296;-76
2022/02/16 02:00:44;;;;;;;18.17;10.30;;;;;;;3.58;75.19;99691.25;4988085;28;106299;-79
2022/02/16 02:03:09;;;;;;;15.00;9.50;;;;;;;3.60;75.40;99689.31;4987587;28;105926;-78
2022/02/16 02:05:35;;;;;;;13.30;8.15;;;;;;;3.65;75.46;99678.38;4988735;28;105854;-78
2022/02/16 02:08:02;;;;;;;18.13;12.13;;;;;;;3.69;75.16;99672.69;4988409;28;105897;-81
2022/02/16 02:10:27;;;;;;;15.52;9.93;;;;;;;3.66;75.48;99672.97;4987767;28;106875;-77
2022/02/16 02:12:52;;;;;;;15.43;10.00;;;;;;;3.72;75.47;99680.31;4986384;28;107326;-80
2022/02/16 02:15:23;;;;;;;11.60;7.68;;;;;;;3.75;75.59;99666.03;4988314;28;106064;-78
2022/02/16 02:17:49;;;;;;;14.52;10.05;;;;;;;3.78;74.93;99672.84;4987955;28;106131;-78
2022/02/16 02:20:25;;;;;;;15.57;10.70;;;;;;;3.81;75.05;99669.91;4987870;28;106016;-76
2022/02/16 02:22:53;;;;;;;13.63;8.30;;;;;;;3.83;74.92;99662.72;4988434;28;106353;-78
2022/02/16 02:25:20;;;;;;;12.75;7.13;;;;;;;3.88;74.89;99655.19;4991634;28;105815;-76
2022/02/16 02:27:45;;;;;;;8.52;6.10;;;;;;;3.89;74.75;99654.25;4991566;28;106240;-77
2022/02/16 02:30:12;;;;;;;11.02;7.72;;;;;;;3.87;74.71;99661.47;4991555;28;106058;-81
2022/02/16 02:32:42;;;;;;;16.35;8.27;;;;;;;3.88;74.85;99644.66;4991209;28;106055;-83
2022/02/16 02:35:09;;;;;;;15.18;10.00;;;;;;;3.84;74.13;99644.13;4992327;28;106003;-78
2022/02/16 02:37:38;;;;;;;12.73;9.02;;;;;;;3.80;74.46;99657.69;4990700;28;106170;-78
2022/02/16 02:40:05;;;;;;;18.10;11.13;;;;;;;3.75;74.00;99654.69;4991689;28;106032;-76
2022/02/16 02:42:30;;;;;;;18.42;12.15;;;;;;;3.65;74.04;99654.66;4991350;28;106008;-82
2022/02/16 02:44:56;;;;;;;18.80;11.05;;;;;;;3.52;73.60;99649.69;4991662;28;106043;-77
2022/02/16 02:47:21;;;;;;;23.83;11.40;;;;;;;3.35;73.82;99649.38;4991349;28;106126;-76
2022/02/16 02:49:47;;;;;;;16.15;11.05;;;;;;;3.22;74.06;99638.28;4991236;28;105909;-76
2022/02/16 02:52:12;;;;;;;21.30;11.25;;;;;;;3.09;73.92;99649.06;4991068;28;106052;-77
2022/02/16 02:54:37;;;;;;;19.40;12.40;;;;;;;3.00;74.30;99648.06;4991404;28;105875;-78
2022/02/16 02:57:03;;;;;;;19.85;12.93;;;;;;;2.93;74.53;99636.44;4990925;28;105898;-77
2022/02/16 02:59:28;;;;;;;19.17;11.70;;;;;;;2.87;74.84;99635.16;4990174;28;105972;-76
2022/02/16 03:01:54;;;;;;;17.35;11.50;;;;;;;2.81;74.93;99626.97;4991065;28;105798;-76
2022/02/16 03:04:19;;;;;;;22.83;13.32;;;;;;;2.76;75.10;99623.91;4991457;28;106011;-77
2022/02/16 03:06:45;;;;;;;18.85;12.07;;;;;;;2.76;75.53;99626.53;4990907;28;106974;-80
2022/02/16 03:09:10;;;;;;;25.65;13.80;;;;;;;2.68;75.42;99630.69;4990653;28;106215;-76
2022/02/16 03:11:35;;;;;;;21.15;12.57;;;;;;;2.63;75.30;99624.97;4989377;28;107208;-75
2022/02/16 03:14:01;;;;;;;23.10;12.98;;;;;;;2.57;74.84;99630.78;4990363;28;106149;-76
2022/02/16 03:16:26;;;;;;;23.60;13.60;;;;;;;2.50;74.79;99617.31;4991017;28;106168;-76
2022/02/16 03:18:51;;;;;;;18.58;12.00;;;;;;;2.46;74.90;99621.19;4990984;28;106022;-81
2022/02/16 03:21:17;;;;;;;19.33;12.60;;;;;;;2.41;75.42;99622.56;4990086;28;106056;-80
2022/02/16 03:23:42;;;;;;;19.75;12.88;;;;;;;2.33;75.10;99620.56;4991568;28;106039;-83
2022/02/16 03:26:08;;;;;;;20.42;12.63;;;;;;;2.27;74.96;99621.06;4990816;28;106129;-81
2022/02/16 03:28:33;;;;;;;12.85;7.13;;;;;;;2.25;75.84;99618.59;4989764;28;106226;-78
2022/02/16 03:30:58;;;;;;;17.70;10.82;;;;;;;2.28;75.83;99618.31;4990290;28;106021;-80
2022/02/16 03:33:24;;;;;;;16.67;10.60;;;;;;;2.29;75.59;99612.09;4990812;28;105939;-75
2022/02/16 03:35:49;;;;;;;13.05;8.88;;;;;;;2.30;76.12;99611.16;4990519;28;106305;-74
2022/02/16 03:38:14;;;;;;;18.20;8.80;;;;;;;2.33;75.98;99605.63;4990277;28;106177;-75
2022/02/16 03:40:40;;;;;;;13.40;9.85;;;;;;;2.37;76.14;99596.50;4991454;28;105997;-81
2022/02/16 03:43:05;;;;;;;11.65;7.43;;;;;;;2.37;75.99;99590.41;4989500;28;106164;-78
2022/02/16 03:45:30;;;;;;;14.77;8.60;;;;;;;2.39;76.12;99582.41;4990508;28;106131;-76
2022/02/16 03:47:56;;;;;;;11.93;7.93;;;;;;;2.42;76.12;99584.75;4988504;28;106858;-78
2022/02/16 03:50:23;;;;;;;12.82;7.88;;;;;;;2.43;75.84;99584.63;4990571;28;106230;-80
2022/02/16 03:52:52;;;;;;;14.10;8.65;;;;;;;2.43;75.47;99583.81;4991503;28;105885;-77
2022/02/16 03:55:18;;;;;;;13.73;9.25;;;;;;;2.40;75.45;99579.63;4990352;28;106251;-77
2022/02/16 03:57:43;;;;;;;13.27;8.98;;;;;;;2.42;75.64;99574.25;4990194;28;106101;-80
2022/02/16 04:00:10;;;;;;;12.52;8.30;;;;;;;2.41;75.87;99575.22;4990205;28;106420;-75
2022/02/16 04:02:36;;;;;;;12.55;8.70;;;;;;;2.41;75.92;99569.97;4990431;28;106092;-80
2022/02/16 04:05:03;;;;;;;11.70;8.30;;;;;;;2.38;75.39;99571.06;4989982;28;106228;-80
2022/02/16 04:07:28;;;;;;;12.90;7.95;;;;;;;2.38;75.90;99571.06;4989984;28;106139;-78
2022/02/16 04:09:53;;;;;;;15.68;8.15;;;;;;;2.35;75.48;99572.16;4989467;28;106085;-77
2022/02/16 04:12:19;;;;;;;11.43;7.68;;;;;;;2.33;75.53;99560.94;4990795;28;105826;-77
2022/02/16 04:14:44;;;;;;;13.63;7.88;;;;;;;2.32;75.53;99561.91;4989302;28;106127;-77
2022/02/16 04:17:09;;;;;;;12.75;7.93;;;;;;;2.31;75.46;99560.25;4989975;28;121844;-77
2022/02/16 04:19:35;;;;;;;14.35;7.63;;;;;;;2.28;75.27;99560.50;4989264;28;105941;-78
2022/02/16 04:22:00;;;;;;;12.02;7.47;;;;;;;2.27;75.16;99558.84;4990445;28;106045;-77
2022/02/16 04:24:26;;;;;;;14.38;6.70;;;;;;;2.22;75.07;99545.25;4990653;28;106221;-77
2022/02/16 04:26:51;;;;;;;8.07;5.65;;;;;;;2.27;75.48;99552.75;4989704;28;106067;-75
2022/02/16 04:29:17;;;;;;;9.45;6.40;;;;;;;2.27;75.46;99543.06;4989688;28;106084;-77
2022/02/16 04:31:42;;;;;;;9.02;6.10;;;;;;;2.31;75.41;99546.25;4990116;28;105985;-77
2022/02/16 04:34:08;;;;;;;12.13;5.18;;;;;;;2.29;74.96;99532.44;4989385;28;106185;-78
2022/02/16 04:36:33;;;;;;;10.90;6.13;;;;;;;2.29;75.13;99535.06;4988696;28;106032;-78
2022/02/16 04:39:00;;;;;;;10.18;5.63;;;;;;;2.30;75.29;99531.47;4989629;28;106375;-78
2022/02/16 04:41:26;;;;;;;10.18;5.97;;;;;;;2.31;74.86;99539.22;4990332;28;106013;-78
2022/02/16 04:43:52;;;;;;;11.30;6.28;;;;;;;2.33;74.81;99534.66;4990040;28;106170;-77
2022/02/16 04:46:17;;;;;;;12.65;6.50;;;;;;;2.35;74.67;99532.72;4988440;28;105885;-76
2022/02/16 04:48:43;;;;;;;12.23;6.18;;;;;;;2.36;74.51;99542.28;4987705;28;106084;-76
2022/02/16 04:51:09;;;;;;;10.30;5.57;;;;;;;2.39;74.47;99535.09;4990247;28;106186;-76
2022/02/16 04:53:35;;;;;;;9.60;5.32;;;;;;;2.37;74.31;99525.53;4988449;28;106179;-76
2022/02/16 04:56:02;;;;;;;8.77;4.30;;;;;;;2.32;73.98;99517.22;4989027;28;106834;-79
2022/02/16 04:58:27;;;;;;;10.38;6.63;;;;;;;2.30;74.16;99521.78;4988928;28;106711;-76
2022/02/16 05:00:52;;;;;;;10.80;5.72;;;;;;;2.24;74.20;99519.66;4990478;28;105862;-77
2022/02/16 05:03:19;;;;;;;12.82;5.40;;;;;;;2.20;74.09;99527.00;4989129;28;106542;-77
2022/02/16 05:05:44;;;;;;;11.30;6.45;;;;;;;2.17;74.34;99515.91;4988958;28;105997;-78
2022/02/16 05:08:10;;;;;;;10.25;5.95;;;;;;;2.16;74.25;99509.84;4988387;28;106038;-76
2022/02/16 05:10:35;;;;;;;10.10;5.82;;;;;;;2.15;74.26;99510.78;4989073;28;106015;-77
2022/02/16 05:13:01;;;;;;;11.57;4.88;;;;;;;2.10;74.09;99514.78;4988132;28;106232;-77
2022/02/16 05:15:26;;;;;;;12.07;6.05;;;;;;;2.08;74.33;99512.28;4987663;28;107302;-74
2022/02/16 05:17:52;;;;;;;9.60;5.97;;;;;;;2.08;74.40;99500.94;4988039;28;106006;-77
2022/02/16 05:20:17;;;;;;;9.35;5.63;;;;;;;2.06;74.21;99502.88;4988626;28;105868;-78
2022/02/16 05:39:21;;;;;;;4.28;3.70;;;;;;;1.77;73.61;99495.69;4986290;28;106083;-77
2022/02/16 05:41:47;;;;;;;8.82;5.40;;;;;;;1.76;73.97;99491.41;4985718;28;106009;-76
2022/02/16 05:44:12;;;;;;;12.68;6.65;;;;;;;1.74;74.03;99477.59;4985268;28;106172;-75
2022/02/16 05:46:38;;;;;;;8.55;5.10;;;;;;;1.75;74.27;99477.47;4985009;28;106433;-79
2022/02/16 05:49:03;;;;;;;9.52;5.63;;;;;;;1.80;74.40;99472.63;4985451;28;106283;-75
2022/02/16 05:51:28;;;;;;;9.32;5.65;;;;;;;1.84;74.35;99470.56;4985623;28;105970;-76
2022/02/16 05:53:54;;;;;;;9.60;5.45;;;;;;;1.89;74.57;99464.91;4985474;28;106014;-76
2022/02/16 05:56:19;;;;;;;6.90;4.00;;;;;;;1.98;74.70;99464.97;4985015;28;107489;-76
2022/02/16 05:58:44;;;;;;;7.03;4.45;;;;;;;2.09;74.61;99468.44;4984768;28;106016;-76
2022/02/16 06:01:10;;;;;;;8.02;4.38;;;;;;;2.16;74.51;99462.53;4985699;28;105859;-76
2022/02/16 06:03:37;;;;;;;9.23;5.32;;;;;;;2.26;74.45;99459.09;4985061;28;106227;-74
2022/02/16 06:06:02;;;;;;;4.78;3.30;;;;;;;2.31;74.18;99449.84;4985059;28;106037;-76
2022/02/16 06:08:28;;;;;;;6.22;4.15;;;;;;;2.37;74.02;99451.91;4982602;28;107180;-74
2022/02/16 06:10:56;;;;;;;8.85;4.45;;;;;;;2.48;74.14;99444.91;4985394;28;105961;-77
2022/02/16 06:13:23;;;;;;;8.45;4.40;;;;;;;2.59;74.09;99449.19;4985555;28;105891;-80
2022/02/16 06:15:48;;;;;;;10.30;4.00;;;;;;;2.68;73.84;99441.31;4984580;28;106282;-74
2022/02/16 06:18:13;;;;;;;6.18;3.50;;;;;;;2.80;73.30;99438.53;4984652;28;105886;-74
2022/02/16 06:20:38;;;;;;;6.45;2.42;;;;;;;2.98;74.43;99447.41;4984843;28;105850;-73
2022/02/16 06:23:04;;;;;;;6.60;3.47;;;;;;;3.17;73.38;99437.81;4985247;28;106183;-74
2022/02/16 06:25:29;;;;;;;6.47;2.45;;;;;;;3.32;73.43;99433.78;4983842;28;126933;-74
2022/02/16 06:27:55;;;;;;;9.73;3.50;;;;;;;3.49;73.00;99431.38;4984716;28;105986;-73
2022/02/16 06:30:20;;;;;;;5.72;2.50;;;;;;;3.64;72.05;99440.47;4985286;28;106225;-75
2022/02/16 06:32:45;;;;;;;6.57;3.13;;;;;;;3.81;71.98;99443.31;4984443;28;106208;-72
2022/02/16 06:35:11;;;;;;;7.65;4.00;;;;;;;3.90;71.61;99434.56;4984184;28;106354;-71
2022/02/16 06:37:37;;;;;;;10.35;4.50;;;;;;;3.98;71.32;99433.84;4983844;28;106158;-73
2022/02/16 06:40:04;;;;;;;6.60;3.85;;;;;;;4.09;71.44;99430.16;4983618;28;105902;-72
2022/02/16 06:42:30;;;;;;;6.95;4.05;;;;;;;4.18;71.21;99426.63;4984833;28;106364;-73
2022/02/16 06:44:55;;;;;;;7.00;3.53;;;;;;;4.27;71.20;99417.03;4984259;28;105833;-73
2022/02/16 06:47:20;;;;;;;8.50;4.35;;;;;;;4.40;71.39;99417.47;4983726;28;105819;-73
2022/02/16 06:49:46;;;;;;;8.48;4.15;;;;;;;4.53;71.07;99419.75;4976711;28;106176;-72
2022/02/16 06:52:11;;;;;;;9.43;4.18;;;;;;;4.68;71.12;99414.78;4970473;28;114975;-72
2022/02/16 06:54:36;;;;;;;9.45;4.30;;;;;;;4.89;70.57;99422.38;4970139;28;125305;-74
2022/02/16 06:57:02;;;;;;;10.20;3.90;;;;;;;5.10;70.49;99416.78;4970088;28;118336;-72
2022/02/16 06:59:27;;;;;;;8.68;5.13;;;;;;;5.26;69.75;99402.84;4971724;28;106194;-73
2022/02/16 07:01:52;;;;;;;8.57;3.58;;;;;;;5.43;69.16;99414.34;4970682;28;106123;-72
2022/02/16 07:04:18;;;;;;;7.90;3.42;;;;;;;5.58;68.54;99404.84;4971050;28;107328;-73
2022/02/16 07:06:43;;;;;;;11.90;4.35;;;;;;;5.70;67.77;99404.56;4970312;28;105912;-73
2022/02/16 07:09:09;;;;;;;4.72;2.38;;;;;;;5.89;67.71;99391.13;4971784;28;105903;-74
2022/02/16 07:11:35;;;;;;;9.05;2.15;;;;;;;6.02;66.25;99403.91;4970689;28;106727;-74
2022/02/16 07:14:00;;;;;;;4.20;2.13;;;;;;;6.10;65.55;99388.06;4970698;28;105916;-73
2022/02/16 07:16:26;;;;;;;4.22;2.20;;;;;;;6.16;64.91;99393.72;4970821;28;105956;-72
2022/02/16 07:18:51;;;;;;;5.10;1.90;;;;;;;6.18;64.50;99379.34;4971425;28;105944;-74
2022/02/16 07:21:18;;;;;;;15.52;2.75;;;;;;;6.19;64.35;99383.66;4970188;28;107886;-73
2022/02/16 07:23:46;;;;;;;4.30;1.85;;;;;;;6.19;63.75;99378.38;4970354;28;105790;-72
2022/02/16 07:26:11;;;;;;;8.32;2.70;;;;;;;6.15;63.60;99368.25;4970295;28;106043;-74
2022/02/16 07:28:37;;;;;;;3.30;2.03;;;;;;;6.18;63.27;99382.00;4969449;28;105908;-73
2022/02/16 07:31:02;;;;;;;6.13;2.65;;;;;;;6.22;63.00;99356.88;4969989;28;115157;-73
2022/02/16 07:33:27;;;;;;;4.88;2.40;;;;;;;6.22;62.85;99371.91;4970137;28;106096;-71
2022/02/16 07:35:53;;;;;;;4.47;2.03;;;;;;;6.24;62.93;99375.22;4969969;28;105946;-74
2022/02/16 07:38:18;;;;;;;7.00;3.30;;;;;;;6.25;63.21;99376.88;4970085;28;106093;-73
2022/02/16 07:40:43;;;;;;;2.70;1.70;;;;;;;6.31;62.75;99385.97;4969947;28;107203;-73
2022/02/16 07:43:09;;;;;;;4.05;2.53;;;;;;;6.33;62.42;99376.91;4969751;28;107835;-73
2022/02/16 07:45:34;;;;;;;5.00;1.85;;;;;;;6.38;61.61;99377.25;4969547;28;105889;-74
2022/02/16 07:48:00;;;;;;;2.45;1.50;;;;;;;6.42;60.99;99378.56;4970760;28;106162;-74
2022/02/16 07:50:29;;;;;;;4.15;1.90;;;;;;;6.46;61.14;99367.66;4969922;28;105980;-74
2022/02/16 07:52:58;;;;;;;8.15;2.95;;;;;;;6.53;61.39;99363.34;4969868;28;106561;-74
2022/02/16 07:55:26;;;;;;;4.68;2.67;;;;;;;6.65;60.77;99362.03;4969080;28;106180;-72
2022/02/16 07:57:52;;;;;;;3.42;1.98;;;;;;;6.75;60.70;99354.78;4970405;28;106346;-72
2022/02/16 08:00:17;;;;;;;4.43;2.60;;;;;;;6.85;60.90;99353.75;4969599;28;106258;-74
2022/02/16 08:02:42;;;;;;;4.90;2.53;;;;;;;6.94;60.39;99345.66;4968357;28;115422;-76
2022/02/16 08:05:08;;;;;;;6.07;3.47;;;;;;;7.03;61.19;99340.34;4969239;28;109125;-73
2022/02/16 08:07:33;;;;;;;7.25;2.40;;;;;;;7.09;60.28;99343.16;4970088;28;106015;-74
2022/02/16 08:09:58;;;;;;;5.68;2.08;;;;;;;7.10;59.13;99334.19;4969391;28;110044;-74
2022/02/16 08:12:23;;;;;;;6.97;2.00;;;;;;;7.16;59.29;99342.47;4968873;28;127000;-72
2022/02/16 08:14:49;;;;;;;2.95;1.77;;;;;;;7.20;59.16;99325.22;4969063;28;120554;-73
2022/02/16 08:17:14;;;;;;;3.25;1.95;;;;;;;7.23;58.98;99315.13;4969903;28;105834;-73
2022/02/16 08:19:39;;;;;;;4.47;2.50;;;;;;;7.29;59.06;99316.28;4969521;28;106226;-74
2022/02/16 08:22:05;;;;;;;4.20;1.95;;;;;;;7.41;59.04;99322.03;4969026;28;106756;-73
2022/02/16 08:24:30;;;;;;;4.95;2.15;;;;;;;7.55;57.95;99318.66;4969478;28;106111;-73
2022/02/16 08:26:56;;;;;;;3.67;1.92;;;;;;;7.76;57.83;99317.25;4970105;28;105873;-73
2022/02/16 08:29:24;;;;;;;6.63;1.98;;;;;;;7.90;56.36;99297.94;4968806;28;105881;-72
2022/02/16 08:31:51;;;;;;;3.42;1.90;;;;;;;8.08;57.21;99300.31;4968844;28;105913;-72
2022/02/16 08:34:16;;;;;;;3.40;1.83;;;;;;;8.32;56.40;99306.44;4968841;28;106396;-73
2022/02/16 08:36:42;;;;;;;4.05;1.38;;;;;;;8.57;55.85;99287.69;4969779;28;105900;-74
2022/02/16 08:39:07;;;;;;;3.55;1.98;;;;;;;8.65;54.89;99290.28;4968822;28;106214;-74
2022/02/16 08:41:33;;;;;;;4.22;1.90;;;;;;;8.72;54.57;99303.66;4968939;28;107054;-74
2022/02/16 08:43:58;;;;;;;5.60;2.05;;;;;;;8.78;54.85;99295.00;4968876;28;105921;-74
2022/02/16 08:46:24;;;;;;;3.38;1.85;;;;;;;8.99;53.00;99281.00;4969986;28;105847;-74
2022/02/16 08:48:49;;;;;;;6.63;2.65;;;;;;;9.30;53.70;99278.16;4969040;28;106149;-76
2022/02/16 08:51:15;;;;;;;3.85;1.65;;;;;;;9.66;52.49;99276.53;4968876;28;105952;-74
2022/02/16 08:53:41;;;;;;;5.78;1.63;;;;;;;9.80;51.77;99274.84;4968707;28;105877;-76
2022/02/16 08:56:06;;;;;;;5.65;2.17;;;;;;;9.83;50.84;99256.69;4969578;28;105908;-74
2022/02/16 08:58:32;;;;;;;4.38;1.92;;;;;;;9.90;50.94;99253.28;4968908;28;106366;-74
2022/02/16 09:00:58;;;;;;;4.03;2.35;;;;;;;10.30;51.14;99245.69;4968393;28;106103;-75
2022/02/16 09:03:24;;;;;;;3.90;2.05;;;;;;;10.67;50.48;99235.75;4968670;28;106181;-76
2022/02/16 09:05:50;;;;;;;3.92;1.98;;;;;;;11.09;49.41;99259.81;4969739;28;106284;-76
2022/02/16 09:08:17;;;;;;;3.47;1.67;;;;;;;11.54;47.72;99233.56;4969029;28;106323;-73
2022/02/16 09:10:43;;;;;;;2.92;1.40;;;;;;;12.05;46.49;99226.09;4968690;28;105899;-73
2022/02/16 09:13:09;;;;;;;4.10;1.58;;;;;;;12.45;44.27;99240.31;4968377;28;106338;-73
2022/02/16 09:15:34;;;;;;;3.08;1.75;;;;;;;12.66;44.57;99251.81;4969318;28;106119;-73
2022/02/16 09:18:00;;;;;;;2.42;1.85;;;;;;;12.44;42.94;99243.16;4967181;28;106018;-74
2022/02/16 09:20:25;;;;;;;3.05;1.55;;;;;;;13.47;41.95;99245.25;4968768;28;105700;-74
2022/02/16 09:22:52;;;;;;;3.47;1.70;;;;;;;14.26;40.37;99204.81;4968298;28;106601;-74
2022/02/16 09:25:18;;;;;;;4.20;1.88;;;;;;;14.67;39.41;99192.72;4968963;28;105875;-73
2022/02/16 09:27:43;;;;;;;2.63;1.35;;;;;;;13.82;39.45;99242.19;4968646;28;106277;-74
2022/02/16 09:30:10;;;;;;;4.72;1.90;;;;;;;12.98;40.22;99242.06;4968604;28;106035;-75
2022/02/16 09:32:36;;;;;;;5.20;2.00;;;;;;;13.12;41.86;99200.09;4968517;28;106022;-73
2022/02/16 09:35:01;;;;;;;4.75;1.48;;;;;;;13.65;41.45;99192.88;4969606;28;106075;-73
2022/02/16 09:37:27;;;;;;;1.38;0.90;;;;;;;13.82;38.96;99203.88;4968436;28;106608;-74
2022/02/16 09:39:53;;;;;;;4.30;1.50;;;;;;;14.27;39.95;99185.03;4968713;28;106214;-73
2022/02/16 09:42:19;;;;;;;4.07;1.90;;;;;;;14.40;37.99;99184.09;4967970;28;105870;-75
2022/02/16 09:44:50;;;;;;;3.67;1.50;;;;;;;14.97;38.40;99177.78;4969042;28;105925;-73
2022/02/16 09:47:15;;;;;;;2.95;1.30;;;;;;;14.83;37.97;99167.22;4968278;28;106212;-73
2022/02/16 09:49:41;;;;;;;3.05;1.48;;;;;;;13.68;38.56;99171.03;4967968;28;105949;-74
2022/02/16 09:52:09;;;;;;;4.50;1.67;;;;;;;13.13;39.75;99183.00;4967855;28;105941;-74
2022/02/16 09:54:36;;;;;;;3.55;1.17;;;;;;;13.50;39.92;99172.56;4968722;28;106115;-73
2022/02/16 09:57:02;;;;;;;2.92;1.50;;;;;;;13.20;39.66;99164.25;4968324;28;106206;-72
2022/02/16 09:59:28;;;;;;;3.00;1.67;;;;;;;13.08;40.12;99174.81;4967829;28;106132;-72
2022/02/16 10:02:04;;;;;;;3.03;1.88;;;;;;;13.81;40.31;99162.13;4968074;28;105984;-73
2022/02/16 10:04:32;;;;;;;7.57;2.20;;;;;;;15.99;38.49;99149.38;4969006;28;106083;-74
2022/02/16 10:06:58;;;;;;;4.07;1.90;;;;;;;17.57;35.51;99153.84;4967996;28;106155;-73
2022/02/16 10:09:26;;;;;;;3.03;2.20;;;;;;;19.19;33.20;99129.00;4968253;28;106496;-74
2022/02/16 10:11:57;;;;;;;6.38;2.35;;;;;;;21.40;30.94;99119.69;4967983;28;105946;-75
2022/02/16 10:14:28;;;;;;;4.70;1.77;;;;;;;23.24;27.50;99121.63;4967236;28;106024;-73
2022/02/16 10:16:54;;;;;;;4.28;1.98;;;;;;;23.79;25.88;99116.09;4968355;28;106347;-73
2022/02/16 10:19:20;;;;;;;4.82;1.85;;;;;;;24.56;24.78;99109.13;4967461;28;106851;-72
2022/02/16 10:22:19;;;;;;;3.92;2.20;;;;;;;24.07;22.87;99110.97;4967898;28;106473;-72
2022/02/16 10:24:44;;;;;;;4.57;2.00;;;;;;;23.22;23.91;99102.88;4968296;28;105918;-73
2022/02/16 10:27:12;;;;;;;3.50;1.77;;;;;;;23.17;24.38;99089.34;4971222;28;106214;-72
2022/02/16 10:29:39;;;;;;;4.63;2.42;;;;;;;23.77;23.11;99091.06;4970738;28;105833;-73
2022/02/16 10:32:05;;;;;;;5.90;2.03;;;;;;;23.86;22.18;99097.53;4970852;28;105881;-72
2022/02/16 10:34:47;;;;;;;3.30;1.92;;;;;;;20.09;25.96;99096.06;4971984;28;105913;-73
2022/02/16 10:37:13;;;;;;;5.05;2.50;;;;;;;18.31;28.07;99090.09;4969148;28;106195;-72
2022/02/16 10:39:40;;;;;;;3.90;1.83;;;;;;;16.24;30.73;99082.81;4970923;28;106010;-74
2022/02/16 10:42:09;;;;;;;7.15;2.10;;;;;;;14.51;33.26;99078.84;4970384;28;106253;-73
2022/02/16 10:44:35;;;;;;;3.08;1.85;;;;;;;13.28;35.80;99080.28;4971189;28;105817;-73
2022/02/16 10:47:10;;;;;;;5.18;1.92;;;;;;;12.23;37.61;99076.78;4970525;28;106154;-76
2022/02/16 10:49:47;;;;;;;6.55;2.33;;;;;;;11.59;39.43;99079.06;4970250;28;106854;-75
2022/02/16 10:52:21;;;;;;;5.47;1.98;;;;;;;11.33;40.39;99109.16;4970330;28;106896;-76
2022/02/16 10:54:56;;;;;;;5.88;1.98;;;;;;;10.90;41.53;99085.47;4971164;28;105786;-77
2022/02/16 10:57:21;;;;;;;3.13;1.73;;;;;;;10.59;42.04;99089.44;4970182;28;106294;-79
2022/02/16 10:59:47;;;;;;;4.03;1.70;;;;;;;10.45;42.51;99081.38;4970136;28;105944;-76
2022/02/16 11:02:16;;;;;;;5.75;1.60;;;;;;;10.30;43.05;99075.31;4970003;28;115284;-76
2022/02/16 11:04:43;;;;;;;4.93;1.80;;;;;;;10.25;43.26;99072.41;4970878;28;105948;-75
2022/02/16 11:07:10;;;;;;;8.38;1.83;;;;;;;10.14;43.78;99060.47;4970135;28;106335;-74
2022/02/16 11:09:40;;;;;;;5.47;1.90;;;;;;;9.98;43.83;99056.28;4968308;28;108709;-78
2022/02/16 11:12:07;;;;;;;2.58;1.45;;;;;;;9.74;44.92;99058.34;4969877;28;106093;-78
2022/02/16 11:14:33;;;;;;;3.28;1.63;;;;;;;9.39;45.49;99046.81;4971048;28;106049;-76
2022/02/16 11:17:00;;;;;;;4.45;1.52;;;;;;;9.16;46.31;99050.50;4970364;28;106264;-77
2022/02/16 11:19:28;;;;;;;4.97;1.60;;;;;;;9.00;47.06;99053.38;4969757;28;106099;-76
2022/02/16 11:22:04;;;;;;;2.88;1.48;;;;;;;8.79;48.29;99036.41;4969716;28;105790;-74
2022/02/16 11:24:46;;;;;;;2.25;1.38;;;;;;;8.67;48.17;99022.78;4971259;28;105832;-79
2022/02/16 11:27:20;;;;;;;2.30;1.08;;;;;;;8.60;49.32;99035.16;4970479;28;105989;-80
2022/02/16 11:29:45;;;;;;;4.38;1.52;;;;;;;8.52;49.19;99019.34;4970000;28;106258;-77
2022/02/16 11:32:21;;;;;;;6.57;2.15;;;;;;;8.50;49.34;99022.16;4969692;28;105870;-77
2022/02/16 11:35:16;;;;;;;5.18;1.75;;;;;;;8.61;49.52;99012.91;4970863;28;105918;-76
2022/02/16 11:37:42;;;;;;;3.08;1.35;;;;;;;8.65;49.82;99008.84;4969749;28;106202;-76
2022/02/16 11:40:10;;;;;;;3.88;1.73;;;;;;;8.58;49.61;98986.72;4969793;28;105902;-75